Time;durP1;ratioP1;P1;durP2;ratioP2;P2;SDS_P1;SDS_P2;PMS_P1;PMS_P2;Temp;Humidity;BMP_temperature;BMP_pressure;BME280_temperature;BME280_humidity;BME280_pressure;Samples;Min_cycle;Max_cycle;Signal;HPM_P1;HPM_P2
2021/10/28 00:13:01;;;;;;;298.83;172.57;;;128.20;2252.80;;;;;;4808131;29;20057;-61
2021/10/28 00:15:33;;;;;;;287.17;169.90;;;128.20;2252.80;;;;;;4808761;29;20400;-61
2021/10/28 00:18:11;;;;;;;268.13;156.13;;;128.30;2252.80;;;;;;4808346;29;20046;-62
2021/10/28 00:20:38;;;;;;;244.77;142.93;;;128.40;2252.80;;;;;;4808323;29;20472;-61
2021/10/28 00:23:05;;;;;;;238.13;138.52;;;128.40;2252.80;;;;;;4792126;29;20041;-66
2021/10/28 00:25:32;;;;;;;228.90;133.40;;;128.40;2252.80;;;;;;4808230;29;20041;-62
2021/10/28 00:27:59;;;;;;;195.90;120.68;;;128.30;2252.80;;;;;;4808591;29;20504;-62
2021/10/28 00:30:25;;;;;;;183.23;112.22;;;128.30;2252.80;;;;;;4808119;29;20038;-66
2021/10/28 00:32:51;;;;;;;175.20;105.60;;;128.30;2252.80;;;;;;4808111;29;20362;-67
2021/10/28 00:35:17;;;;;;;162.80;101.72;;;128.30;2252.80;;;;;;4808632;29;20038;-66
2021/10/28 00:37:43;;;;;;;166.68;101.78;;;128.30;2252.80;;;;;;4808038;29;20031;-61
2021/10/28 00:40:10;;;;;;;157.68;96.45;;;128.30;2252.80;;;;;;4808042;29;20034;-62
2021/10/28 00:42:37;;;;;;;207.35;123.88;;;128.30;2252.80;;;;;;4807765;29;20043;-67
2021/10/28 00:45:05;;;;;;;169.95;102.88;;;128.20;2252.80;;;;;;4808013;29;20469;-66
2021/10/28 00:47:36;;;;;;;157.50;92.63;;;128.10;2252.80;;;;;;4808151;29;20408;-64
2021/10/28 00:50:04;;;;;;;142.18;86.70;;;128.10;2252.80;;;;;;4807893;29;20046;-61
2021/10/28 00:52:30;;;;;;;137.15;85.78;;;128.10;2252.80;;;;;;4807864;29;20030;-66
2021/10/28 00:54:56;;;;;;;143.45;86.35;;;128.10;2252.80;;;;;;4807506;29;20111;-61
2021/10/28 00:57:22;;;;;;;127.28;81.53;;;128.10;2252.80;;;;;;4808052;29;20058;-61
2021/10/28 00:59:48;;;;;;;185.10;109.65;;;128.10;2252.80;;;;;;4807929;29;20121;-63
2021/10/28 01:02:14;;;;;;;159.48;94.28;;;128.00;2252.80;;;;;;4807671;29;20042;-64
2021/10/28 01:04:41;;;;;;;141.68;88.68;;;103.30;2227.20;;;;;;4807857;29;20491;-62
2021/10/28 01:07:07;;;;;;;129.38;81.93;;;103.20;2227.20;;;;;;4807862;29;20445;-61
2021/10/28 01:09:34;;;;;;;145.30;88.85;;;103.20;2227.20;;;;;;4807557;29;20030;-62
2021/10/28 01:11:59;;;;;;;149.80;92.93;;;103.10;2227.20;;;;;;4807563;29;20075;-61
2021/10/28 01:14:25;;;;;;;134.45;86.00;;;103.00;2227.20;;;;;;4807454;29;20418;-60
2021/10/28 01:16:56;;;;;;;115.85;75.18;;;103.10;2227.20;;;;;;4807674;29;20035;-61
2021/10/28 01:19:22;;;;;;;117.60;75.60;;;103.10;2227.20;;;;;;4807330;29;20035;-61
2021/10/28 01:21:49;;;;;;;121.60;74.70;;;103.10;2227.20;;;;;;4807293;29;20050;-61
2021/10/28 01:24:16;;;;;;;121.57;74.22;;;103.20;2227.20;;;;;;4806282;29;20042;-64
2021/10/28 01:26:42;;;;;;;110.97;70.90;;;103.20;2227.20;;;;;;4807499;29;20045;-61
2021/10/28 01:29:08;;;;;;;123.50;71.05;;;103.20;2227.20;;;;;;4807467;29;20031;-61
2021/10/28 01:31:35;;;;;;;123.32;70.88;;;103.10;2227.20;;;;;;4807001;29;20107;-66
2021/10/28 01:34:04;;;;;;;109.50;70.15;;;103.20;2227.20;;;;;;4807144;29;20045;-66
2021/10/28 01:36:30;;;;;;;113.55;70.03;;;103.20;2227.20;;;;;;4807362;29;20034;-61
2021/10/28 01:38:56;;;;;;;110.05;72.32;;;103.20;2227.20;;;;;;4806991;29;20059;-62
2021/10/28 01:41:23;;;;;;;123.28;78.28;;;103.20;2227.20;;;;;;4807084;29;20039;-61
2021/10/28 01:43:49;;;;;;;117.32;75.82;;;103.20;2227.20;;;;;;4807187;29;20484;-61
2021/10/28 01:46:15;;;;;;;127.05;79.70;;;103.10;2227.20;;;;;;4807218;29;20061;-61
2021/10/28 01:48:42;;;;;;;134.82;79.03;;;103.20;2227.20;;;;;;4807160;29;20054;-61
2021/10/28 01:51:10;;;;;;;128.40;79.65;;;103.20;2227.20;;;;;;4806904;29;20042;-61
2021/10/28 01:53:40;;;;;;;134.43;78.53;;;103.10;2227.20;;;;;;4806662;29;20054;-61
2021/10/28 01:56:08;;;;;;;132.02;80.00;;;103.10;2227.20;;;;;;4806781;29;20030;-61
2021/10/28 01:58:34;;;;;;;126.18;80.88;;;103.10;2227.20;;;;;;4806617;29;20083;-64
2021/10/28 02:01:01;;;;;;;114.47;73.63;;;103.10;2227.20;;;;;;4806649;29;20117;-61
2021/10/28 02:03:27;;;;;;;118.22;76.20;;;103.00;2227.20;;;;;;4806715;29;20037;-62
2021/10/28 02:05:53;;;;;;;140.73;87.32;;;102.90;2227.20;;;;;;4806889;29;20031;-66
2021/10/28 02:08:19;;;;;;;126.65;75.72;;;102.90;2227.20;;;;;;4807396;29;20106;-61
2021/10/28 02:10:46;;;;;;;127.25;75.28;;;102.80;2227.20;;;;;;4806524;29;20023;-61
2021/10/28 02:13:13;;;;;;;150.80;91.30;;;102.70;2227.20;;;;;;4806522;29;20492;-61
2021/10/28 02:15:40;;;;;;;164.38;101.13;;;102.80;2227.20;;;;;;4806439;29;20033;-61
2021/10/28 02:18:06;;;;;;;167.48;103.18;;;102.90;2227.20;;;;;;4806455;29;20058;-61
2021/10/28 02:20:32;;;;;;;167.82;103.50;;;103.00;2227.20;;;;;;4806699;29;20054;-65
2021/10/28 02:22:58;;;;;;;168.43;101.80;;;103.10;2227.20;;;;;;4806437;29;20035;-66
2021/10/28 02:25:24;;;;;;;176.40;105.47;;;103.20;2227.20;;;;;;4806316;29;20022;-61
2021/10/28 02:27:51;;;;;;;159.00;100.72;;;103.20;2227.20;;;;;;4806649;29;20041;-61
2021/10/28 02:30:17;;;;;;;164.32;102.35;;;103.30;2227.20;;;;;;4806419;29;20058;-61
2021/10/28 02:32:45;;;;;;;162.85;98.10;;;103.30;2227.20;;;;;;4806600;29;20027;-62
2021/10/28 02:35:11;;;;;;;154.45;96.50;;;103.30;2227.20;;;;;;4805928;29;20069;-61
2021/10/28 02:37:37;;;;;;;152.02;93.50;;;128.00;2252.80;;;;;;4806556;29;20050;-61
2021/10/28 02:40:04;;;;;;;146.63;92.18;;;128.00;2252.80;;;;;;4806242;29;20109;-67
2021/10/28 02:42:31;;;;;;;143.65;88.05;;;103.30;2227.20;;;;;;4806171;29;20031;-61
2021/10/28 02:44:57;;;;;;;145.18;89.43;;;103.00;2227.20;;;;;;4806191;29;20385;-66
2021/10/28 02:47:24;;;;;;;148.30;88.28;;;102.90;2227.20;;;;;;4806290;29;20031;-64
2021/10/28 02:49:50;;;;;;;148.55;88.55;;;102.90;2227.20;;;;;;4806421;29;20031;-62
2021/10/28 02:52:16;;;;;;;152.10;95.15;;;103.00;2227.20;;;;;;4806334;29;20082;-61
2021/10/28 02:54:42;;;;;;;159.88;97.13;;;103.00;2227.20;;;;;;4805860;29;20074;-61
2021/10/28 02:57:08;;;;;;;153.40;91.13;;;103.00;2227.20;;;;;;4806087;29;20116;-61
2021/10/28 02:59:35;;;;;;;141.10;88.53;;;103.00;2227.20;;;;;;4806161;29;20031;-62
2021/10/28 03:02:01;;;;;;;154.65;95.43;;;102.90;2227.20;;;;;;4806252;29;20039;-61
2021/10/28 03:04:28;;;;;;;159.18;99.10;;;102.90;2227.20;;;;;;4806140;29;20057;-61
2021/10/28 03:06:54;;;;;;;164.07;97.70;;;102.90;2227.20;;;;;;4805961;29;20027;-61
2021/10/28 03:09:22;;;;;;;159.60;98.00;;;102.90;2227.20;;;;;;4806057;29;20170;-62
2021/10/28 03:11:51;;;;;;;143.60;89.68;;;102.90;2227.20;;;;;;4806180;29;20268;-61
2021/10/28 03:14:21;;;;;;;155.85;95.32;;;102.80;2227.20;;;;;;4805944;29;20034;-67
2021/10/28 03:16:59;;;;;;;157.47;98.67;;;102.80;2227.20;;;;;;4806058;29;20031;-66
2021/10/28 03:27:23;;;;;;;181.68;104.82;;;102.60;2227.20;;;;;;4806384;29;20058;-66
2021/10/28 03:29:49;;;;;;;177.77;102.73;;;102.60;2227.20;;;;;;4805817;29;20477;-62
2021/10/28 03:32:15;;;;;;;172.32;99.68;;;102.60;2227.20;;;;;;4805782;29;20493;-67
2021/10/28 03:34:43;;;;;;;178.77;106.10;;;102.40;2227.20;;;;;;4805847;29;20033;-66
2021/10/28 03:37:15;;;;;;;200.15;116.40;;;102.40;2227.20;;;;;;4806034;29;20046;-66
2021/10/28 03:40:01;;;;;;;188.98;107.75;;;102.40;2227.20;;;;;;4805752;29;20373;-65
2021/10/28 03:56:29;;;;;;;212.15;122.07;;;102.50;2227.20;;;;;;4809233;29;20278;-66
2021/10/28 04:02:13;;;;;;;;;;;102.50;2227.20;;;;;;4809303;29;20045;-61
2021/10/28 04:31:29;;;;;;;210.82;121.07;;;77.30;2227.20;;;;;;4805575;29;20038;-63
2021/10/28 04:33:58;;;;;;;245.30;136.33;;;77.30;2227.20;;;;;;4806595;29;20588;-65
2021/10/28 04:36:29;;;;;;;231.85;128.95;;;77.30;2227.20;;;;;;4807150;29;20039;-68
2021/10/28 04:38:56;;;;;;;232.68;132.68;;;77.40;2227.20;;;;;;4808090;29;20062;-65
2021/10/28 04:41:22;;;;;;;280.90;144.80;;;77.40;2227.20;;;;;;4808209;29;20409;-59
2021/10/28 04:43:47;;;;;;;236.53;133.20;;;77.40;2227.20;;;;;;4808247;29;20035;-67
2021/10/28 04:46:13;;;;;;;219.07;128.00;;;77.50;2227.20;;;;;;4808026;29;20450;-63
2021/10/28 04:48:39;;;;;;;231.63;131.43;;;77.60;2227.20;;;;;;4807929;29;20442;-59
2021/10/28 04:51:05;;;;;;;214.57;124.50;;;77.60;2227.20;;;;;;4808293;29;20046;-66
2021/10/28 04:53:31;;;;;;;220.80;129.63;;;77.70;2227.20;;;;;;4807658;29;20059;-62
2021/10/28 04:55:57;;;;;;;219.73;125.37;;;77.70;2227.20;;;;;;4807792;29;20027;-59
2021/10/28 04:58:23;;;;;;;233.23;147.30;;;102.40;2227.20;;;;;;4807754;29;20043;-68
2021/10/28 05:00:51;;;;;;;222.70;129.23;;;102.40;2227.20;;;;;;4807465;29;20043;-58
2021/10/28 05:03:17;;;;;;;223.13;130.23;;;102.40;2227.20;;;;;;4807658;29;20117;-70
2021/10/28 05:05:43;;;;;;;213.33;121.80;;;102.40;2227.20;;;;;;4807630;29;20039;-70
2021/10/28 05:08:09;;;;;;;203.53;118.60;;;102.40;2227.20;;;;;;4807644;29;20082;-59
2021/10/28 05:10:35;;;;;;;189.37;114.93;;;102.40;2227.20;;;;;;4807482;29;20035;-62
2021/10/28 05:13:01;;;;;;;214.60;121.30;;;102.40;2227.20;;;;;;4807754;29;20123;-62
2021/10/28 05:15:27;;;;;;;203.67;125.13;;;77.70;2227.20;;;;;;4807469;29;20038;-68
2021/10/28 05:17:52;;;;;;;214.27;120.77;;;77.70;2227.20;;;;;;4807695;29;20030;-62
2021/10/28 05:20:18;;;;;;;225.93;131.40;;;102.40;2227.20;;;;;;4807344;29;20492;-64
2021/10/28 05:22:44;;;;;;;333.60;193.30;;;102.40;2227.20;;;;;;4807599;29;20405;-75
2021/10/28 05:25:10;;;;;;;344.10;213.07;;;102.50;2227.20;;;;;;4807420;29;20042;-66
2021/10/28 05:27:36;;;;;;;254.30;151.17;;;102.60;2227.20;;;;;;4807290;29;20035;-65
2021/10/28 05:30:03;;;;;;;274.70;162.23;;;102.50;2227.20;;;;;;4806556;29;20042;-62
2021/10/28 05:32:29;;;;;;;265.03;159.97;;;102.50;2227.20;;;;;;4806649;29;20511;-62
2021/10/28 05:34:59;;;;;;;222.70;132.07;;;102.60;2227.20;;;;;;4806848;29;20027;-68
2021/10/28 05:37:26;;;;;;;213.73;128.13;;;102.60;2227.20;;;;;;4806177;29;20031;-67
2021/10/28 05:39:52;;;;;;;208.47;125.27;;;102.40;2227.20;;;;;;4806749;29;20042;-62
2021/10/28 05:42:18;;;;;;;212.90;122.95;;;102.40;2227.20;;;;;;4805716;29;20412;-68
2021/10/28 05:44:43;;;;;;;222.57;131.00;;;102.40;2227.20;;;;;;4799641;29;20227;-67
2021/10/28 05:47:09;;;;;;;201.90;118.87;;;77.70;2227.20;;;;;;4819019;29;20572;-67
2021/10/28 05:49:35;;;;;;;203.63;117.77;;;77.70;2227.20;;;;;;4814023;29;20036;-68
2021/10/28 05:52:01;;;;;;;208.33;121.77;;;77.70;2227.20;;;;;;4807738;29;20121;-62
2021/10/28 05:54:27;;;;;;;206.25;120.53;;;77.70;2227.20;;;;;;4806634;29;20500;-68
2021/10/28 05:56:53;;;;;;;211.60;121.50;;;77.60;2227.20;;;;;;4806563;29;20045;-68
2021/10/28 05:59:19;;;;;;;218.47;125.97;;;77.70;2227.20;;;;;;4806815;29;20532;-68
2021/10/28 06:01:45;;;;;;;218.30;125.40;;;77.70;2227.20;;;;;;4808748;29;20034;-63
2021/10/28 06:04:10;;;;;;;202.75;119.55;;;102.40;2227.20;;;;;;4812101;29;20031;-64
2021/10/28 06:06:36;;;;;;;210.97;123.73;;;77.70;2227.20;;;;;;4813455;29;20026;-65
2021/10/28 06:09:02;;;;;;;202.07;119.77;;;102.40;2227.20;;;;;;4812150;29;20523;-62
2021/10/28 06:11:28;;;;;;;198.03;116.50;;;102.40;2227.20;;;;;;4823313;29;20495;-62
2021/10/28 06:13:54;;;;;;;203.47;119.80;;;102.50;2227.20;;;;;;4824463;29;20046;-63
2021/10/28 06:16:23;;;;;;;206.27;116.53;;;102.50;2227.20;;;;;;4825191;29;20031;-66
2021/10/28 06:18:50;;;;;;;180.77;109.90;;;102.60;2227.20;;;;;;4824994;29;20058;-61
2021/10/28 06:21:19;;;;;;;193.65;113.40;;;102.60;2227.20;;;;;;4824935;29;20388;-61
2021/10/28 06:23:45;;;;;;;180.13;108.07;;;102.70;2227.20;;;;;;4824851;29;20034;-61
2021/10/28 06:26:12;;;;;;;177.00;106.47;;;102.80;2227.20;;;;;;4824613;29;20064;-64
2021/10/28 06:28:39;;;;;;;173.20;103.97;;;103.00;2227.20;;;;;;4824465;29;20054;-63
2021/10/28 06:31:05;;;;;;;175.63;106.00;;;103.10;2227.20;;;;;;4807356;29;20034;-62
2021/10/28 06:33:34;;;;;;;179.87;110.37;;;103.10;2227.20;;;;;;4806138;29;20385;-61
2021/10/28 06:36:03;;;;;;;193.97;119.77;;;103.30;2227.20;;;;;;4788377;30;20067;-61
2021/10/28 06:38:31;;;;;;;181.50;108.63;;;128.00;2252.80;;;;;;4788988;30;20117;-62
2021/10/28 06:40:57;;;;;;;132.35;88.43;;;128.10;2252.80;;;;;;4788419;30;20035;-69
2021/10/28 06:43:23;;;;;;;134.80;80.90;;;128.30;2252.80;;;;;;4795782;29;20492;-68
2021/10/28 06:45:49;;;;;;;125.53;74.97;;;128.40;2252.80;;;;;;4806123;29;20039;-68
2021/10/28 06:48:15;;;;;;;112.75;75.95;;;128.40;2252.80;;;;;;4806266;29;20033;-70
2021/10/28 06:50:52;;;;;;;115.38;75.03;;;128.50;2252.80;;;;;;4805530;29;20034;-68
2021/10/28 06:55:52;;;;;;;106.28;66.95;;;128.60;2252.80;;;;;;4805689;29;20038;-70
2021/10/28 07:03:47;;;;;;;;;;;153.60;2252.80;;;;;;4805478;29;20116;-61
2021/10/28 07:06:18;;;;;;;110.80;65.03;;;153.70;2252.80;;;;;;4805956;29;19958;-62
2021/10/28 07:08:47;;;;;;;105.43;66.10;;;153.70;2252.80;;;;;;4804913;29;20040;-62
2021/10/28 07:11:18;;;;;;;100.53;66.93;;;153.80;2252.80;;;;;;4805744;29;20061;-61
2021/10/28 07:13:47;;;;;;;108.68;70.50;;;153.80;2252.80;;;;;;4802644;29;20038;-62
2021/10/28 07:16:32;;;;;;;133.70;90.53;;;153.90;2252.80;;;;;;4806000;29;20534;-61
2021/10/28 07:19:17;;;;;;;144.30;92.10;;;154.00;2252.80;;;;;;4805903;29;20084;-62
2021/10/28 07:22:30;;;;;;;141.00;88.28;;;154.10;2252.80;;;;;;4807397;29;20082;-62
2021/10/28 07:59:32;;;;;;;100.63;60.92;;;205.40;2252.80;;;;;;4808189;29;20444;-62
2021/10/28 08:18:00;;;;;;;290.42;166.02;;;281.60;2022.40;;;;;;4807472;29;20038;-61
2021/10/28 08:31:01;;;;;;;127.88;80.90;;;537.80;1177.60;;;;;;4807639;29;20059;-62
2021/10/28 08:33:26;;;;;;;83.70;58.42;;;563.90;1075.20;;;;;;4807227;29;20039;-62
2021/10/28 08:35:55;;;;;;;138.52;83.45;;;589.30;1024.00;;;;;;4806851;29;20109;-64
2021/10/28 08:38:22;;;;;;;262.60;141.30;;;614.90;921.60;;;;;;4806806;29;20047;-66
2021/10/28 08:40:53;;;;;;;179.23;103.60;;;640.60;844.80;;;;;;4806487;29;20042;-65
2021/10/28 08:43:21;;;;;;;185.93;114.30;;;665.60;844.80;;;;;;4805982;29;20113;-63
2021/10/28 08:45:50;;;;;;;105.05;74.80;;;666.40;819.20;;;;;;4804975;29;20038;-64
2021/10/28 08:48:15;;;;;;;70.20;53.63;;;691.20;793.60;;;;;;4805284;29;20027;-61
2021/10/28 08:51:00;;;;;;;59.42;49.53;;;691.50;793.60;;;;;;4806234;29;20110;-62
2021/10/28 08:56:00;;;;;;;48.45;36.38;;;717.20;819.20;;;;;;4805863;29;20103;-65
2021/10/28 09:29:20;;;;;;;37.65;27.77;;;845.20;665.60;;;;;;4799931;29;20507;-67
2021/10/28 09:31:56;;;;;;;28.65;23.02;;;870.80;614.40;;;;;;4811294;29;20042;-64
2021/10/28 09:34:37;;;;;;;29.42;23.50;;;870.50;640.00;;;;;;4824505;29;20388;-69
2021/10/28 09:45:38;;;;;;;25.73;22.75;;;794.50;614.40;;;;;;4814686;29;20389;-62
2021/10/28 09:48:29;;;;;;;29.88;21.92;;;742.90;691.20;;;;;;4812242;29;20031;-61
2021/10/28 09:50:55;;;;;;;51.13;39.67;;;692.10;716.80;;;;;;4815149;29;20027;-68
2021/10/28 09:53:28;;;;;;;39.03;29.88;;;615.20;793.60;;;;;;4804077;29;20079;-64
2021/10/28 09:58:39;;;;;;;35.00;26.95;;;538.00;972.80;;;;;;4811782;29;20044;-68
2021/10/28 10:01:09;;;;;;;26.63;21.95;;;487.20;1049.60;;;;;;4815758;29;20434;-68
2021/10/28 10:03:39;;;;;;;31.02;25.52;;;487.10;1049.60;;;;;;4812731;29;20492;-67
2021/10/28 10:06:06;;;;;;;35.55;27.15;;;487.20;1100.80;;;;;;4816156;29;20023;-69
2021/10/28 10:08:35;;;;;;;41.28;26.05;;;486.60;1126.40;;;;;;4814377;29;20033;-67
2021/10/28 10:11:04;;;;;;;32.90;25.55;;;461.30;1177.60;;;;;;4824538;29;20449;-67
2021/10/28 10:13:31;;;;;;;34.70;25.60;;;460.80;1254.40;;;;;;4824660;29;20036;-67
2021/10/28 10:16:00;;;;;;;42.78;28.55;;;435.70;1280.00;;;;;;4824845;29;20500;-67
2021/10/28 10:18:28;;;;;;;34.80;26.15;;;461.30;1228.80;;;;;;4822868;29;20030;-68
2021/10/28 10:20:59;;;;;;;38.28;28.85;;;461.10;1228.80;;;;;;4806266;29;20027;-67
2021/10/28 12:17:04;;;;;;;48.90;27.73;;;410.00;1331.20;;;;;;4808174;29;20057;-64
2021/10/28 12:23:14;;;;;;;140.18;69.15;;;384.90;1331.20;;;;;;4807770;29;20054;-68
2021/10/28 12:25:34;;;;;;;419.75;190.80;;;384.80;1356.80;;;;;;4806587;29;20473;-62
2021/10/28 12:28:37;;;;;;;344.38;152.30;;;384.60;1331.20;;;;;;4807988;29;20088;-71
2021/10/28 12:45:35;;;;;;;40.63;26.40;;;409.80;1305.60;;;;;;4807939;29;20085;-69
2021/10/28 12:53:46;;;;;;;92.88;46.75;;;409.80;1305.60;;;;;;4791777;29;20074;-63
2021/10/28 13:04:46;;;;;;;112.00;57.10;;;435.90;1177.60;;;;;;4807386;29;20030;-61
2021/10/28 13:07:35;;;;;;;106.97;49.80;;;436.00;1177.60;;;;;;4807450;29;20453;-69
2021/10/28 13:48:33;;;;;;;39.80;22.15;;;486.90;1024.00;;;;;;4825048;29;20041;-68
2021/10/28 13:51:11;;;;;;;42.90;21.73;;;486.80;1049.60;;;;;;4811975;29;20047;-69
2021/10/28 13:54:15;;;;;;;34.33;19.55;;;486.70;1049.60;;;;;;4806515;29;20046;-70
2021/10/28 13:59:12;;;;;;;68.80;32.92;;;461.60;1075.20;;;;;;4806673;29;20023;-64
2021/10/28 14:26:34;;;;;;;50.13;29.98;;;409.80;1305.60;;;;;;4770839;29;20053;-61
2021/10/28 15:28:19;;;;;;;131.35;64.68;;;333.60;1612.80;;;;;;4805262;29;20054;-66
2021/10/28 15:36:12;;;;;;;114.95;61.58;;;333.30;1638.40;;;;;;4805219;29;20046;-62
2021/10/28 15:42:28;;;;;;;117.47;65.03;;;333.10;1689.60;;;;;;4804889;29;20114;-63
2021/10/28 15:50:26;;;;;;;110.50;63.90;;;308.10;1740.80;;;;;;4790875;30;20469;-63
2021/10/28 16:00:51;;;;;;;113.90;68.65;;;307.80;1766.40;;;;;;4808282;29;20034;-64
2021/10/28 16:22:28;;;;;;;183.73;86.10;;;282.50;1843.20;;;;;;4807717;29;20089;-63
2021/10/28 16:24:54;;;;;;;201.98;96.65;;;282.40;1868.80;;;;;;4808047;29;20114;-62
2021/10/28 16:27:21;;;;;;;209.07;97.18;;;282.40;1868.80;;;;;;4808046;29;20035;-62
2021/10/28 16:29:47;;;;;;;282.48;110.30;;;282.30;1868.80;;;;;;4807658;29;20035;-61
2021/10/28 16:32:15;;;;;;;225.32;105.28;;;282.30;1868.80;;;;;;4807710;29;20470;-62
2021/10/28 16:34:41;;;;;;;195.07;95.03;;;282.30;1894.40;;;;;;4807841;29;20038;-63
2021/10/28 16:37:07;;;;;;;192.60;94.22;;;282.30;1894.40;;;;;;4807803;29;20084;-61
2021/10/28 16:39:34;;;;;;;194.73;92.82;;;282.20;1894.40;;;;;;4807442;29;20031;-61
2021/10/28 16:42:00;;;;;;;226.25;109.35;;;282.20;1894.40;;;;;;4807546;29;20480;-61
2021/10/28 16:44:26;;;;;;;294.60;139.80;;;282.10;1920.00;;;;;;4806922;29;20106;-62
2021/10/28 16:46:53;;;;;;;321.42;147.63;;;282.00;1920.00;;;;;;4806672;29;20035;-68
2021/10/28 16:49:21;;;;;;;272.55;136.10;;;281.90;1945.60;;;;;;4806698;29;20034;-64
2021/10/28 16:51:47;;;;;;;218.07;111.72;;;281.80;1945.60;;;;;;4806761;29;20489;-63
2021/10/28 16:54:16;;;;;;;180.82;95.20;;;281.70;1945.60;;;;;;4806451;29;20042;-63
2021/10/28 16:56:42;;;;;;;145.63;78.00;;;281.70;1971.20;;;;;;4806876;29;20029;-69
2021/10/28 16:59:08;;;;;;;134.98;69.70;;;281.60;1971.20;;;;;;4790443;29;20023;-68
2021/10/28 17:01:34;;;;;;;110.68;64.05;;;256.90;1971.20;;;;;;4790208;29;20035;-62
2021/10/28 17:04:02;;;;;;;210.95;110.22;;;256.80;1971.20;;;;;;4806719;29;20046;-65
2021/10/28 17:06:28;;;;;;;228.15;112.28;;;256.50;2048.00;;;;;;4806627;29;20577;-67
2021/10/28 17:08:56;;;;;;;201.88;101.25;;;256.40;2073.60;;;;;;4806590;29;20046;-68
2021/10/28 17:11:23;;;;;;;220.25;111.60;;;256.40;2048.00;;;;;;4806734;29;20026;-70
2021/10/28 17:13:49;;;;;;;206.13;105.20;;;256.30;2073.60;;;;;;4806730;29;20070;-65
2021/10/28 17:16:15;;;;;;;185.85;102.65;;;256.30;2073.60;;;;;;4806688;29;20480;-68
2021/10/28 17:18:41;;;;;;;199.70;108.93;;;256.30;2073.60;;;;;;4806092;29;20031;-70
2021/10/28 17:21:07;;;;;;;209.30;110.00;;;256.20;2099.20;;;;;;4806653;29;20076;-66
2021/10/28 17:23:41;;;;;;;214.60;111.60;;;256.10;2099.20;;;;;;4807088;29;20450;-68
2021/10/28 17:26:07;;;;;;;;;;;256.10;2099.20;;;;;;4807503;29;20101;-69
2021/10/28 17:28:35;;;;;;;225.07;119.15;;;256.00;2099.20;;;;;;4806573;29;20411;-69
2021/10/28 17:31:03;;;;;;;224.77;123.00;;;256.00;2099.20;;;;;;4805800;29;20118;-69
2021/10/28 17:33:29;;;;;;;235.68;131.85;;;256.00;2099.20;;;;;;4806336;29;20023;-70
2021/10/28 17:35:56;;;;;;;212.82;126.93;;;231.30;2124.80;;;;;;4806463;29;20389;-69
2021/10/28 17:38:22;;;;;;;170.20;112.00;;;231.20;2124.80;;;;;;4806344;29;20019;-69
2021/10/28 17:40:48;;;;;;;199.77;131.82;;;231.20;2124.80;;;;;;4806499;29;20034;-70
2021/10/28 17:43:18;;;;;;;178.65;120.72;;;231.10;2124.80;;;;;;4806482;29;20051;-69
2021/10/28 17:45:44;;;;;;;168.32;112.68;;;231.10;2099.20;;;;;;4806523;29;20512;-68
2021/10/28 17:48:10;;;;;;;125.97;77.88;;;231.20;2124.80;;;;;;4806549;29;20031;-69
2021/10/28 17:50:37;;;;;;;141.40;70.35;;;231.10;2099.20;;;;;;4806226;29;20442;-69
2021/10/28 17:53:04;;;;;;;142.45;74.20;;;231.00;2124.80;;;;;;4806292;29;20034;-69
2021/10/28 17:55:30;;;;;;;191.85;91.70;;;231.00;2124.80;;;;;;4806114;29;20051;-69
2021/10/28 17:57:56;;;;;;;194.73;92.15;;;231.00;2124.80;;;;;;4790029;29;20031;-68
2021/10/28 18:00:23;;;;;;;178.82;88.63;;;231.00;2124.80;;;;;;4805872;29;20034;-62
2021/10/28 18:02:51;;;;;;;219.75;114.43;;;231.00;2150.40;;;;;;4806270;29;20397;-64
2021/10/28 18:05:17;;;;;;;223.20;118.07;;;230.80;2150.40;;;;;;4805799;29;20031;-61
2021/10/28 18:07:42;;;;;;;201.90;101.25;;;230.80;2176.00;;;;;;4805882;29;20057;-63
2021/10/28 18:10:09;;;;;;;222.65;107.32;;;230.80;2176.00;;;;;;4805872;29;20091;-62
2021/10/28 18:12:35;;;;;;;244.98;108.93;;;230.70;2176.00;;;;;;4806123;29;20027;-62
2021/10/28 18:15:06;;;;;;;261.52;118.40;;;230.70;2201.60;;;;;;4805962;29;20030;-62
2021/10/28 18:17:32;;;;;;;270.50;117.43;;;230.70;2176.00;;;;;;4805918;29;20107;-69
2021/10/28 18:19:59;;;;;;;232.38;114.30;;;230.70;2201.60;;;;;;4789439;29;20500;-62
2021/10/28 18:22:26;;;;;;;225.10;112.05;;;230.60;2201.60;;;;;;4803658;29;20382;-64
2021/10/28 18:24:52;;;;;;;216.07;103.70;;;230.50;2201.60;;;;;;4806019;29;20027;-62
2021/10/28 18:27:18;;;;;;;168.73;79.55;;;230.50;2201.60;;;;;;4805809;29;20581;-68
2021/10/28 18:29:45;;;;;;;162.45;74.38;;;230.50;2201.60;;;;;;4805203;29;20122;-62
2021/10/28 18:32:11;;;;;;;153.25;66.80;;;230.50;2227.20;;;;;;4805318;29;20037;-61
2021/10/28 18:34:44;;;;;;;155.57;69.75;;;230.50;2201.60;;;;;;4805525;29;20054;-61
2021/10/28 18:37:09;;;;;;;146.73;66.38;;;230.50;2201.60;;;;;;4805518;29;20497;-63
2021/10/28 18:39:36;;;;;;;134.45;63.97;;;230.50;2201.60;;;;;;4805484;29;20058;-61
2021/10/28 18:42:02;;;;;;;128.98;59.05;;;230.50;2201.60;;;;;;4805554;29;20452;-57
2021/10/28 18:44:29;;;;;;;118.50;57.38;;;230.50;2201.60;;;;;;4805594;29;20042;-57
2021/10/28 18:46:56;;;;;;;114.85;55.13;;;230.50;2201.60;;;;;;4805375;29;20227;-57
2021/10/28 18:49:23;;;;;;;113.07;55.22;;;230.40;2201.60;;;;;;4804815;29;20042;-57
2021/10/28 18:51:49;;;;;;;314.25;67.53;;;230.50;2201.60;;;;;;4805590;29;20035;-58
2021/10/28 18:54:17;;;;;;;113.85;55.15;;;230.40;2201.60;;;;;;4805530;29;20467;-57
2021/10/28 18:56:44;;;;;;;96.43;51.83;;;205.70;2201.60;;;;;;4805579;29;20023;-57
2021/10/28 18:59:10;;;;;;;90.72;48.70;;;230.50;2176.00;;;;;;4805600;29;20023;-57
2021/10/28 19:01:37;;;;;;;83.53;47.60;;;230.60;2176.00;;;;;;4805499;29;20362;-57
2021/10/28 19:04:03;;;;;;;85.38;46.65;;;230.40;2201.60;;;;;;4805356;29;20373;-57
2021/10/28 19:06:29;;;;;;;74.55;45.28;;;230.40;2227.20;;;;;;4803227;29;20029;-57
2021/10/28 19:08:55;;;;;;;73.82;45.45;;;230.40;2227.20;;;;;;4805205;29;20027;-57
2021/10/28 19:11:24;;;;;;;69.80;43.30;;;205.70;2252.80;;;;;;4805498;29;20076;-57
2021/10/28 19:13:50;;;;;;;63.95;40.90;;;205.60;2227.20;;;;;;4805824;29;20066;-57
2021/10/28 19:16:17;;;;;;;78.22;44.20;;;205.60;2252.80;;;;;;4805922;29;20022;-57
2021/10/28 19:18:43;;;;;;;83.07;48.50;;;205.50;2252.80;;;;;;4809141;29;20385;-57
2021/10/28 19:21:11;;;;;;;94.05;57.03;;;205.40;2252.80;;;;;;4809182;29;20110;-57
2021/10/28 19:23:38;;;;;;;92.15;57.10;;;205.50;2252.80;;;;;;4809121;29;20108;-60
2021/10/28 19:26:04;;;;;;;117.47;62.50;;;205.50;2252.80;;;;;;4809195;29;20019;-60
2021/10/28 19:28:32;;;;;;;99.30;55.17;;;205.50;2252.80;;;;;;4808766;29;20042;-58
2021/10/28 19:31:18;;;;;;;92.53;55.08;;;205.50;2252.80;;;;;;4807726;29;20102;-57
2021/10/28 19:33:49;;;;;;;92.38;54.67;;;205.50;2252.80;;;;;;4808192;29;20027;-58
2021/10/28 19:36:30;;;;;;;119.15;67.53;;;205.40;2252.80;;;;;;4808113;29;20072;-61
2021/10/28 19:46:45;;;;;;;66.18;43.15;;;205.30;2252.80;;;;;;4808010;29;20111;-59
2021/10/28 19:49:11;;;;;;;61.90;41.55;;;205.20;2252.80;;;;;;4807402;29;20057;-59
2021/10/28 19:51:36;;;;;;;70.35;42.00;;;205.10;2252.80;;;;;;4806336;29;20030;-68
2021/10/28 19:54:04;;;;;;;67.63;41.42;;;205.10;2252.80;;;;;;4807316;29;20059;-57
2021/10/28 19:56:30;;;;;;;62.72;40.40;;;205.20;2252.80;;;;;;4807789;29;20545;-57
2021/10/28 19:59:00;;;;;;;61.83;41.83;;;205.20;2252.80;;;;;;4808034;29;20114;-59
2021/10/28 20:01:31;;;;;;;62.75;41.05;;;205.20;2252.80;;;;;;4806799;29;20043;-57
2021/10/28 20:20:15;;;;;;;86.05;50.90;;;204.90;2252.80;;;;;;4807324;29;20443;-65
2021/10/28 20:22:44;;;;;;;104.00;56.50;;;204.80;2252.80;;;;;;4807792;29;20031;-66
2021/10/28 20:25:13;;;;;;;103.10;58.00;;;180.10;2252.80;;;;;;4807362;29;20496;-59
2021/10/28 20:27:40;;;;;;;108.72;58.67;;;180.10;2252.80;;;;;;4807507;29;20019;-58
2021/10/28 20:30:09;;;;;;;97.20;55.95;;;180.10;2252.80;;;;;;4806290;29;20018;-58